Time;durP1;ratioP1;P1;durP2;ratioP2;P2;SDS_P1;SDS_P2;PMS_P1;PMS_P2;Temp;Humidity;BMP_temperature;BMP_pressure;BME280_temperature;BME280_humidity;BME280_pressure;Samples;Min_cycle;Max_cycle;Signal;HPM_P1;HPM_P2
2022/05/04 00:00:00;;;;;;;15.10;9.10;;;;;;;9.77;54.10;100322.91;130414;1267;108846;-84
2022/05/04 00:03:06;;;;;;;13.80;8.60;;;;;;;9.76;54.09;100322.09;130460;1267;108427;-83
2022/05/04 00:06:12;;;;;;;12.90;8.30;;;;;;;9.76;54.26;100325.84;130712;1267;108688;-82
2022/05/04 00:09:18;;;;;;;14.30;8.60;;;;;;;9.73;54.32;100322.36;130427;1267;108677;-82
2022/05/04 00:12:24;;;;;;;15.60;8.60;;;;;;;9.70;54.51;100320.86;130461;1267;108741;-82
2022/05/04 00:15:30;;;;;;;12.30;8.40;;;;;;;9.72;54.58;100319.28;130463;1267;108875;-82
2022/05/04 00:18:35;;;;;;;21.00;10.00;;;;;;;9.72;54.59;100328.48;130502;1267;108608;-84
2022/05/04 00:21:41;;;;;;;19.10;9.60;;;;;;;9.73;54.80;100324.88;130450;1267;107043;-84
2022/05/04 00:24:47;;;;;;;22.00;10.20;;;;;;;9.73;54.94;100324.83;130486;1267;108670;-82
2022/05/04 00:27:52;;;;;;;18.60;10.10;;;;;;;9.71;54.89;100325.80;130429;1267;108705;-82
2022/05/04 00:30:57;;;;;;;18.00;9.80;;;;;;;9.70;55.16;100331.15;130476;1267;108545;-82
2022/05/04 00:34:03;;;;;;;18.00;9.20;;;;;;;9.73;55.28;100333.77;130449;1267;109055;-82
2022/05/04 00:37:09;;;;;;;16.60;10.00;;;;;;;9.73;55.33;100333.75;130467;1267;108711;-82
2022/05/04 00:40:15;;;;;;;14.40;9.00;;;;;;;9.72;55.39;100330.98;130464;1267;108227;-82
2022/05/04 00:43:25;;;;;;;14.70;9.20;;;;;;;9.73;55.42;100331.79;130468;1267;108653;-84
2022/05/04 00:46:30;;;;;;;14.70;8.90;;;;;;;9.73;55.67;100336.08;130480;1267;108590;-81
2022/05/04 00:49:36;;;;;;;13.10;7.60;;;;;;;9.71;55.68;100341.02;130457;1267;108867;-80
2022/05/04 00:52:45;;;;;;;16.90;8.90;;;;;;;9.73;56.01;100342.59;130945;1267;107635;-89
2022/05/04 00:55:53;;;;;;;14.60;7.50;;;;;;;9.77;55.72;100340.24;130908;1267;108787;-90
2022/05/04 00:58:58;;;;;;;13.70;8.40;;;;;;;9.78;55.77;100342.81;130883;1266;108896;-88
2022/05/04 01:02:05;;;;;;;11.80;8.00;;;;;;;9.85;55.77;100342.52;130839;1267;108833;-89
2022/05/04 01:05:12;;;;;;;13.50;7.90;;;;;;;9.92;55.99;100339.00;130869;1267;108664;-88
2022/05/04 01:08:18;;;;;;;12.40;7.70;;;;;;;9.98;55.86;100337.72;130657;1267;108841;-88
2022/05/04 01:11:23;;;;;;;14.10;8.40;;;;;;;10.02;56.05;100348.19;130650;1267;108865;-86
2022/05/04 01:14:29;;;;;;;18.50;8.40;;;;;;;10.04;56.18;100357.81;130514;1267;108779;-87
2022/05/04 01:17:34;;;;;;;13.30;8.30;;;;;;;10.05;56.12;100355.56;130478;1267;108635;-84
2022/05/04 01:20:40;;;;;;;14.20;9.20;;;;;;;10.06;56.32;100353.36;130428;1267;107678;-83
2022/05/04 01:23:47;;;;;;;13.20;8.00;;;;;;;10.07;56.40;100353.75;130467;1267;107759;-82
2022/05/04 01:26:52;;;;;;;14.20;8.50;;;;;;;10.08;56.46;100350.09;130451;1267;108777;-83
2022/05/04 01:29:58;;;;;;;12.70;8.50;;;;;;;10.08;56.47;100357.07;130464;1267;107420;-83
2022/05/04 01:33:04;;;;;;;12.00;8.10;;;;;;;9.96;56.68;100362.08;130470;1267;108726;-81
2022/05/04 01:36:10;;;;;;;13.50;7.70;;;;;;;9.92;56.71;100365.73;130460;1266;108728;-81
2022/05/04 01:39:15;;;;;;;12.10;8.00;;;;;;;9.90;56.94;100363.57;130494;1267;108907;-84
2022/05/04 01:42:24;;;;;;;14.20;8.60;;;;;;;9.87;57.16;100367.23;130483;1267;108910;-84
2022/05/04 01:45:29;;;;;;;13.00;8.40;;;;;;;9.87;57.08;100365.64;130481;1267;108804;-84
2022/05/04 01:48:35;;;;;;;12.40;8.10;;;;;;;9.86;57.17;100368.60;130508;1267;108118;-83
2022/05/04 01:51:41;;;;;;;12.00;7.80;;;;;;;9.85;57.31;100367.95;130508;1267;108770;-82
2022/05/04 01:54:46;;;;;;;12.60;8.10;;;;;;;9.82;57.48;100368.05;130512;1266;109658;-88
2022/05/04 01:57:52;;;;;;;15.20;9.10;;;;;;;9.81;57.60;100375.77;130922;1267;107434;-89
2022/05/04 02:00:58;;;;;;;13.80;8.00;;;;;;;9.79;57.55;100378.95;130632;1267;108508;-86
2022/05/04 02:04:05;;;;;;;16.90;8.80;;;;;;;9.77;57.65;100371.89;130686;1267;108718;-77
2022/05/04 02:07:11;;;;;;;13.30;8.10;;;;;;;9.79;57.80;100370.79;130607;1267;108815;-76
2022/05/04 02:10:17;;;;;;;13.60;8.10;;;;;;;9.83;57.87;100376.17;130496;1267;108688;-78
2022/05/04 02:13:22;;;;;;;12.50;8.10;;;;;;;9.87;57.79;100381.67;130482;1267;107662;-78
2022/05/04 02:16:28;;;;;;;14.40;8.80;;;;;;;9.90;57.88;100383.85;130631;1267;108858;-77
2022/05/04 02:19:34;;;;;;;14.80;8.80;;;;;;;9.90;57.85;100379.35;130472;1267;108653;-77
2022/05/04 02:22:39;;;;;;;18.20;11.20;;;;;;;9.90;58.06;100380.33;130605;1267;108858;-79
2022/05/04 02:25:45;;;;;;;22.30;11.80;;;;;;;9.91;58.17;100380.01;130758;1267;109035;-75
2022/05/04 02:28:51;;;;;;;23.00;12.30;;;;;;;9.91;58.31;100382.70;130586;1267;108822;-75
2022/05/04 02:31:58;;;;;;;16.10;9.70;;;;;;;9.88;58.29;100376.61;130480;1267;109486;-75
2022/05/04 02:38:28;;;;;;;14.20;9.40;;;;;;;9.85;58.52;100386.62;130449;1267;107285;-75
2022/05/04 02:41:33;;;;;;;12.20;8.40;;;;;;;9.73;59.06;100388.64;130428;1267;107527;-76
2022/05/04 02:44:39;;;;;;;12.60;8.50;;;;;;;9.59;58.91;100390.31;130957;1267;108707;-77
2022/05/04 02:47:44;;;;;;;13.20;8.50;;;;;;;9.60;59.11;100384.70;130608;1267;108552;-82
2022/05/04 02:50:50;;;;;;;13.80;8.40;;;;;;;9.63;59.08;100387.40;130466;1267;108650;-82
2022/05/04 02:53:55;;;;;;;13.10;8.10;;;;;;;9.65;59.11;100388.67;130508;1267;108972;-78
2022/05/04 02:57:01;;;;;;;11.40;6.70;;;;;;;9.70;59.23;100389.06;130388;1267;108587;-80
2022/05/04 03:00:09;;;;;;;11.40;7.20;;;;;;;9.74;59.27;100394.55;130349;1268;108632;-78
2022/05/04 03:03:14;;;;;;;15.00;8.50;;;;;;;9.79;59.13;100392.19;130511;1267;108962;-81
2022/05/04 03:06:20;;;;;;;12.60;8.40;;;;;;;9.84;59.42;100392.43;130583;1267;108684;-87
2022/05/04 03:09:26;;;;;;;12.90;8.70;;;;;;;9.85;59.29;100395.64;130612;1267;107845;-86
2022/05/04 03:12:31;;;;;;;11.40;7.80;;;;;;;9.87;59.45;100396.27;130802;1267;108939;-86
2022/05/04 03:15:37;;;;;;;12.30;8.30;;;;;;;9.86;59.38;100396.13;130580;1267;106280;-85
2022/05/04 03:18:42;;;;;;;12.40;8.10;;;;;;;9.79;59.66;100394.07;130482;1267;108653;-86
2022/05/04 03:21:48;;;;;;;10.50;7.30;;;;;;;9.79;59.57;100399.09;130457;1267;107721;-86
2022/05/04 03:24:53;;;;;;;11.20;8.10;;;;;;;9.80;59.64;100400.41;130470;1267;107744;-88
2022/05/04 03:27:59;;;;;;;11.20;8.10;;;;;;;9.78;59.67;100404.27;130477;1266;108830;-86
2022/05/04 03:31:04;;;;;;;12.50;7.90;;;;;;;9.75;59.82;100405.70;130446;1267;108815;-86
2022/05/04 03:34:10;;;;;;;14.10;8.30;;;;;;;9.73;59.86;100415.23;130508;1267;107672;-85
2022/05/04 03:37:15;;;;;;;22.10;11.90;;;;;;;9.71;59.96;100418.80;130464;1267;108917;-86
2022/05/04 03:40:21;;;;;;;17.50;9.80;;;;;;;9.67;59.81;100413.77;130491;1267;107653;-84
2022/05/04 03:43:26;;;;;;;13.90;9.10;;;;;;;9.62;59.95;100414.55;130578;1267;108563;-85
2022/05/04 03:46:43;;;;;;;12.30;8.20;;;;;;;9.53;60.10;100415.73;130463;1267;196633;-84
2022/05/04 03:49:49;;;;;;;13.00;8.00;;;;;;;9.50;60.23;100415.33;130594;1267;108816;-85
2022/05/04 03:52:54;;;;;;;11.80;7.90;;;;;;;9.51;60.34;100423.73;130624;1266;108952;-86
2022/05/04 03:55:59;;;;;;;14.60;8.80;;;;;;;9.57;60.75;100425.08;130477;1267;109126;-85
2022/05/04 03:59:06;;;;;;;15.00;9.10;;;;;;;9.51;61.16;100440.03;130413;1267;108739;-84
2022/05/04 04:02:12;;;;;;;13.10;8.30;;;;;;;9.39;61.17;100446.23;130442;1267;108695;-84
2022/05/04 04:05:17;;;;;;;16.50;9.60;;;;;;;9.39;61.40;100446.23;130447;1267;108976;-84
2022/05/04 04:08:23;;;;;;;11.50;8.70;;;;;;;9.39;61.93;100445.56;130506;1267;108734;-85
2022/05/04 04:11:29;;;;;;;13.10;8.50;;;;;;;9.52;61.56;100437.64;130469;1267;107661;-85
2022/05/04 04:14:34;;;;;;;11.40;8.40;;;;;;;9.71;61.43;100439.77;130482;1266;108730;-85
2022/05/04 04:17:40;;;;;;;15.60;8.60;;;;;;;9.89;61.34;100440.30;130456;1267;108865;-86
2022/05/04 04:24:09;;;;;;;13.80;8.20;;;;;;;10.32;61.61;100441.86;130463;1267;108491;-84
2022/05/04 04:27:15;;;;;;;20.50;13.50;;;;;;;10.57;61.51;100438.59;130420;1267;108860;-86
2022/05/04 04:30:21;;;;;;;17.40;11.90;;;;;;;10.82;61.57;100437.33;130320;1268;108564;-85
2022/05/04 04:33:27;;;;;;;12.40;9.00;;;;;;;11.07;61.37;100442.86;130518;1267;108613;-85
2022/05/04 04:36:33;;;;;;;12.70;8.90;;;;;;;11.35;61.77;100453.63;130470;1267;108681;-86
2022/05/04 04:39:38;;;;;;;15.50;8.90;;;;;;;11.76;61.47;100459.63;130437;1267;108695;-85
2022/05/04 04:42:43;;;;;;;9.40;7.60;;;;;;;12.21;61.27;100456.73;130493;1266;108843;-85
2022/05/04 04:45:51;;;;;;;9.60;6.80;;;;;;;12.58;60.85;100452.44;130586;1267;108549;-86
2022/05/04 04:48:56;;;;;;;9.00;7.00;;;;;;;12.92;60.63;100450.50;130573;1267;108947;-85
2022/05/04 04:52:02;;;;;;;8.50;6.50;;;;;;;13.11;60.16;100450.30;130573;1267;108676;-86
2022/05/04 04:55:09;;;;;;;8.70;6.70;;;;;;;13.24;60.06;100454.52;130470;1267;108540;-86
2022/05/04 04:58:15;;;;;;;9.00;6.60;;;;;;;13.45;59.80;100455.40;130455;1267;108875;-86
2022/05/04 05:01:21;;;;;;;8.60;7.20;;;;;;;13.63;59.59;100462.23;130500;1267;108854;-84
2022/05/04 05:04:27;;;;;;;10.50;6.90;;;;;;;13.80;59.41;100456.06;130484;1267;108843;-86
2022/05/04 05:07:33;;;;;;;9.00;6.60;;;;;;;13.94;59.29;100453.56;130488;1266;108872;-86
2022/05/04 05:10:39;;;;;;;8.20;6.40;;;;;;;14.00;59.25;100452.55;130494;1267;108943;-85
2022/05/04 05:17:05;;;;;;;11.50;6.40;;;;;;;13.88;58.83;100464.94;130338;1268;108984;-84
2022/05/04 05:20:12;;;;;;;8.70;6.70;;;;;;;13.84;58.94;100468.25;130564;1267;108603;-83
2022/05/04 05:23:19;;;;;;;8.30;6.20;;;;;;;13.88;58.80;100471.61;130505;1267;107012;-82
2022/05/04 05:26:25;;;;;;;7.80;6.50;;;;;;;13.88;58.99;100470.29;130551;1267;108784;-70
2022/05/04 05:29:30;;;;;;;9.70;6.50;;;;;;;13.90;58.52;100473.71;130402;1267;108543;-72
2022/05/04 05:32:36;;;;;;;9.40;5.90;;;;;;;13.86;58.61;100470.55;130400;1267;109180;-74
2022/05/04 05:35:41;;;;;;;7.80;6.40;;;;;;;13.86;58.46;100474.86;130361;1267;108667;-74
2022/05/04 05:38:47;;;;;;;9.20;6.00;;;;;;;13.86;58.37;100474.70;130368;1267;108699;-74
2022/05/04 05:41:53;;;;;;;7.40;5.80;;;;;;;13.85;58.41;100477.14;130373;1267;108970;-74
2022/05/04 05:44:58;;;;;;;11.10;6.20;;;;;;;13.85;58.33;100476.91;130355;1266;108664;-75
2022/05/04 05:48:04;;;;;;;9.00;6.40;;;;;;;13.85;58.05;100477.31;130375;1267;108825;-75
2022/05/04 05:51:09;;;;;;;11.80;6.50;;;;;;;13.82;58.06;100484.23;130355;1267;108947;-76
2022/05/04 05:54:15;;;;;;;8.60;6.10;;;;;;;13.77;58.09;100478.48;130375;1267;108898;-75
2022/05/04 05:57:22;;;;;;;6.60;5.80;;;;;;;13.76;58.18;100478.09;130359;1267;109299;-75
2022/05/04 06:00:27;;;;;;;8.00;6.00;;;;;;;13.75;57.96;100481.94;130381;1267;108656;-75
2022/05/04 06:03:33;;;;;;;6.60;5.70;;;;;;;13.73;58.12;100485.73;130363;1266;108657;-75
2022/05/04 06:06:38;;;;;;;7.60;6.10;;;;;;;13.71;58.00;100489.65;130398;1267;108050;-75
2022/05/04 06:09:44;;;;;;;6.80;5.80;;;;;;;13.66;58.05;100483.77;130418;1266;108692;-76
2022/05/04 06:12:49;;;;;;;8.80;5.60;;;;;;;13.66;58.13;100482.02;130355;1267;109123;-77
2022/05/04 06:15:54;;;;;;;11.50;7.40;;;;;;;13.69;58.12;100488.89;130409;1267;108800;-74
2022/05/04 06:19:00;;;;;;;7.70;5.90;;;;;;;13.68;58.07;100496.13;130390;1267;108702;-75
2022/05/04 06:22:06;;;;;;;8.00;5.60;;;;;;;13.68;57.86;100493.95;130337;1267;108697;-75
2022/05/04 06:25:12;;;;;;;9.00;6.60;;;;;;;13.70;57.99;100494.89;130403;1267;108734;-75
2022/05/04 06:28:17;;;;;;;7.80;5.90;;;;;;;13.69;57.85;100493.72;130392;1267;107291;-75
2022/05/04 06:34:46;;;;;;;7.60;5.60;;;;;;;13.71;57.89;100498.77;130505;1267;108713;-76
2022/05/04 06:37:52;;;;;;;7.00;5.40;;;;;;;13.74;57.69;100498.64;130472;1267;108666;-75
2022/05/04 06:40:58;;;;;;;8.50;5.10;;;;;;;13.77;57.51;100502.83;130338;1267;108684;-75
2022/05/04 06:44:04;;;;;;;7.20;5.50;;;;;;;13.81;57.74;100502.65;130362;1267;108854;-75
2022/05/04 06:47:09;;;;;;;7.60;5.30;;;;;;;13.83;57.52;100497.20;130504;1267;108621;-75
2022/05/04 06:50:15;;;;;;;9.10;5.80;;;;;;;13.84;57.56;100494.45;130429;1267;108666;-76
2022/05/04 06:53:20;;;;;;;7.20;5.20;;;;;;;13.89;57.68;100491.36;130430;1267;108758;-75
2022/05/04 06:56:26;;;;;;;9.20;5.40;;;;;;;13.97;57.58;100488.83;130501;1267;108196;-75
2022/05/04 06:59:31;;;;;;;8.50;5.70;;;;;;;14.05;57.44;100489.56;130512;1267;108692;-75
2022/05/04 07:02:37;;;;;;;7.30;5.10;;;;;;;14.11;57.31;100493.17;130446;1267;108259;-75
2022/05/04 07:05:43;;;;;;;8.20;4.70;;;;;;;14.18;57.26;100493.73;130386;1267;108703;-75
2022/05/04 07:08:48;;;;;;;6.80;4.20;;;;;;;14.20;56.76;100499.02;130444;1267;108580;-75
2022/05/04 07:11:54;;;;;;;4.90;4.30;;;;;;;14.21;56.58;100508.52;130403;1267;108918;-75
2022/05/04 07:14:59;;;;;;;6.10;4.30;;;;;;;14.23;56.50;100510.09;130370;1267;108938;-76
2022/05/04 07:18:05;;;;;;;6.10;4.20;;;;;;;14.27;56.62;100516.09;130380;1267;108854;-75
2022/05/04 07:21:11;;;;;;;6.60;4.30;;;;;;;14.34;56.42;100512.52;130370;1267;108706;-75
2022/05/04 07:24:16;;;;;;;5.60;4.60;;;;;;;14.42;56.76;100516.95;130519;1266;108691;-76
2022/05/04 07:27:21;;;;;;;6.90;4.80;;;;;;;14.52;56.56;100515.13;130592;1267;108733;-77
2022/05/04 07:30:27;;;;;;;7.50;4.60;;;;;;;14.57;55.73;100515.88;130533;1267;108563;-76
2022/05/04 07:33:32;;;;;;;5.50;4.70;;;;;;;14.55;55.93;100513.41;130517;1267;108722;-77
2022/05/04 07:36:38;;;;;;;6.60;4.30;;;;;;;14.63;56.21;100516.10;130445;1267;109013;-76
2022/05/04 07:43:07;;;;;;;5.60;4.30;;;;;;;14.83;56.14;100519.41;130474;1267;108842;-75
2022/05/04 07:46:12;;;;;;;6.20;4.40;;;;;;;14.89;55.73;100522.45;130391;1267;108829;-77
2022/05/04 07:49:18;;;;;;;4.50;3.60;;;;;;;14.93;55.57;100520.72;130379;1266;108628;-75
2022/05/04 07:52:24;;;;;;;9.10;4.20;;;;;;;14.96;55.25;100528.24;130326;1267;109085;-75
2022/05/04 07:55:30;;;;;;;6.40;4.10;;;;;;;14.99;55.09;100530.06;130417;1267;109106;-75
2022/05/04 07:58:36;;;;;;;3.60;3.00;;;;;;;15.03;54.81;100534.66;130435;1267;108538;-77
2022/05/04 08:05:05;;;;;;;4.30;3.50;;;;;;;15.01;53.40;100532.42;130346;1267;108701;-75
2022/05/04 08:08:11;;;;;;;4.10;3.20;;;;;;;15.09;54.23;100533.55;130331;1267;109522;-75
2022/05/04 08:11:16;;;;;;;5.00;2.60;;;;;;;15.26;53.87;100532.94;130376;1267;108823;-75
2022/05/04 08:14:24;;;;;;;3.30;2.30;;;;;;;15.48;53.69;100528.22;130395;1267;109193;-77
2022/05/04 08:17:30;;;;;;;2.80;2.10;;;;;;;15.71;53.39;100534.36;130363;1267;107687;-75
2022/05/04 08:20:35;;;;;;;3.60;2.30;;;;;;;15.87;52.99;100531.09;130317;1267;109135;-75
2022/05/04 08:23:41;;;;;;;4.50;2.90;;;;;;;16.03;52.52;100532.91;130345;1266;108767;-76
2022/05/04 08:26:46;;;;;;;5.00;3.00;;;;;;;16.20;52.04;100533.86;130406;1267;109558;-76
2022/05/04 08:29:52;;;;;;;4.10;3.00;;;;;;;16.36;52.37;100529.40;130334;1267;109608;-74
2022/05/04 08:32:57;;;;;;;3.60;2.80;;;;;;;16.51;52.00;100531.77;130356;1267;108670;-75
2022/05/04 08:36:03;;;;;;;3.00;2.40;;;;;;;16.59;51.32;100537.77;130392;1267;108963;-76
2022/05/04 08:39:09;;;;;;;3.10;2.60;;;;;;;16.64;51.69;100533.38;130385;1267;108971;-75
2022/05/04 08:42:15;;;;;;;2.90;2.50;;;;;;;16.69;50.99;100531.89;130403;1267;109126;-75
2022/05/04 08:45:23;;;;;;;3.70;2.80;;;;;;;16.74;51.22;100533.41;130366;1267;108953;-75
2022/05/04 08:48:31;;;;;;;3.60;3.00;;;;;;;16.69;50.58;100536.19;130417;1268;108948;-77
2022/05/04 08:51:37;;;;;;;4.70;2.70;;;;;;;16.40;50.27;100539.19;130361;1267;108745;-77
2022/05/04 08:54:44;;;;;;;4.40;2.90;;;;;;;16.08;48.75;100546.39;130380;1267;108786;-75
2022/05/04 08:57:50;;;;;;;4.00;3.00;;;;;;;15.74;50.39;100545.30;130330;1267;109073;-75
2022/05/04 09:00:57;;;;;;;3.80;2.90;;;;;;;15.70;50.82;100542.84;130345;1268;108739;-76
2022/05/04 09:04:03;;;;;;;3.80;3.10;;;;;;;15.71;50.63;100548.52;130339;1267;108711;-75
2022/05/04 09:07:22;;;;;;;3.80;3.10;;;;;;;15.71;49.98;100547.09;130356;1267;108642;-75
2022/05/04 09:10:31;;;;;;;4.20;3.20;;;;;;;15.75;50.13;100544.91;130389;1267;108746;-75
2022/05/04 09:13:48;;;;;;;6.60;3.20;;;;;;;15.83;50.65;100539.03;130386;1267;108897;-75
2022/05/04 09:16:54;;;;;;;4.80;3.40;;;;;;;16.11;51.09;100539.16;130370;1267;108689;-75
2022/05/04 09:23:28;;;;;;;3.80;2.90;;;;;;;16.49;50.15;100531.38;130370;1267;108672;-76
2022/05/04 09:26:39;;;;;;;4.90;3.10;;;;;;;16.62;49.63;100531.05;130407;1267;109137;-78
2022/05/04 09:29:45;;;;;;;5.50;3.20;;;;;;;16.59;48.69;100532.77;130389;1268;108662;-77
2022/05/04 09:32:50;;;;;;;4.20;3.00;;;;;;;16.55;49.30;100530.58;130315;1268;109441;-75
2022/05/04 09:35:57;;;;;;;4.40;3.00;;;;;;;16.60;49.37;100534.02;130339;1267;108656;-77
2022/05/04 09:45:57;;;;;;;3.90;3.20;;;;;;;16.82;48.99;100527.21;130388;1268;108724;-75
2022/05/04 09:49:10;;;;;;;6.70;3.40;;;;;;;16.94;48.80;100522.80;130385;1267;108908;-76
2022/05/04 09:52:21;;;;;;;4.60;3.60;;;;;;;17.18;48.76;100526.85;130359;1267;108082;-75
2022/05/04 09:55:27;;;;;;;4.60;3.20;;;;;;;17.56;48.55;100521.80;130343;1268;108729;-77
2022/05/04 09:58:33;;;;;;;4.10;2.70;;;;;;;17.91;48.02;100517.40;130346;1267;108610;-78
2022/05/04 10:01:39;;;;;;;5.30;2.60;;;;;;;18.25;47.94;100517.93;130388;1268;108795;-78
2022/05/04 10:04:46;;;;;;;3.80;2.70;;;;;;;18.55;47.52;100508.59;130382;1267;109184;-78
2022/05/04 10:07:52;;;;;;;4.00;2.70;;;;;;;18.71;47.32;100512.50;130354;1267;108666;-77
2022/05/04 10:10:59;;;;;;;3.50;2.50;;;;;;;18.76;46.20;100510.28;130352;1268;108881;-77
2022/05/04 10:14:08;;;;;;;3.80;2.90;;;;;;;18.76;46.62;100514.70;130440;1268;109288;-77
2022/05/04 10:17:18;;;;;;;5.10;2.80;;;;;;;18.73;45.59;100518.22;130289;1268;108697;-77
2022/05/04 10:20:31;;;;;;;3.00;2.60;;;;;;;18.70;45.87;100520.98;130484;1268;108952;-77
2022/05/04 10:23:42;;;;;;;4.30;2.80;;;;;;;18.68;45.27;100521.97;130450;1267;108720;-78
2022/05/04 10:26:48;;;;;;;4.00;2.90;;;;;;;18.62;44.70;100521.61;130437;1267;108677;-78
2022/05/04 10:33:32;;;;;;;5.10;3.70;;;;;;;18.38;45.33;100525.90;130435;1268;109125;-77
2022/05/04 10:36:40;;;;;;;4.70;2.90;;;;;;;18.37;44.83;100521.08;130372;1268;107746;-77
2022/05/04 10:40:02;;;;;;;4.70;2.70;;;;;;;18.37;45.05;100517.25;130386;1268;108826;-77
2022/05/04 10:43:11;;;;;;;6.90;2.90;;;;;;;18.32;44.38;100513.70;130319;1267;108638;-77
2022/05/04 10:46:20;;;;;;;5.80;2.80;;;;;;;18.20;44.52;100514.23;130296;1267;107623;-76
2022/05/04 10:49:36;;;;;;;3.00;2.60;;;;;;;18.14;44.68;100508.50;130340;1268;108649;-76
2022/05/04 10:52:50;;;;;;;5.00;2.50;;;;;;;18.23;44.80;100506.27;130341;1267;108894;-77
2022/05/04 10:56:05;;;;;;;5.70;3.10;;;;;;;18.35;44.73;100504.90;130342;1268;109038;-76
2022/05/04 10:59:12;;;;;;;4.50;2.70;;;;;;;18.51;44.58;100504.63;130388;1267;108750;-76
2022/05/04 11:02:20;;;;;;;5.50;2.60;;;;;;;18.76;43.91;100503.27;130387;1267;108787;-75
2022/05/04 11:05:44;;;;;;;4.80;2.90;;;;;;;18.86;43.11;100501.83;130382;1267;108944;-76
2022/05/04 11:08:50;;;;;;;4.10;3.00;;;;;;;18.92;43.91;100503.19;130350;1268;108890;-77
2022/05/04 11:11:58;;;;;;;3.60;2.90;;;;;;;19.07;43.74;100501.29;130470;1266;108745;-76
2022/05/04 11:15:04;;;;;;;5.00;2.80;;;;;;;19.18;43.66;100497.45;130571;1268;108802;-76
2022/05/04 11:18:20;;;;;;;6.00;2.90;;;;;;;19.31;43.24;100489.38;130506;1268;108968;-77
2022/05/04 11:21:27;;;;;;;4.80;2.60;;;;;;;19.40;43.53;100488.48;130544;1266;108859;-77
2022/05/04 11:24:32;;;;;;;4.10;2.80;;;;;;;19.56;43.13;100493.66;130603;1266;107725;-77
2022/05/04 11:27:38;;;;;;;4.90;2.80;;;;;;;19.67;42.91;100493.63;130438;1267;108704;-76
2022/05/04 11:30:44;;;;;;;3.20;2.60;;;;;;;19.80;42.32;100493.84;130517;1267;109035;-78
2022/05/04 11:33:51;;;;;;;4.00;3.00;;;;;;;19.83;42.75;100488.33;130417;1268;107261;-77
2022/05/04 11:36:59;;;;;;;3.70;2.80;;;;;;;19.84;42.19;100488.22;130412;1267;108859;-76
2022/05/04 11:40:16;;;;;;;3.60;2.70;;;;;;;19.73;41.81;100486.45;130380;1267;107487;-76
2022/05/04 11:43:28;;;;;;;3.00;2.60;;;;;;;19.53;41.43;100486.13;130332;1268;108803;-77
2022/05/04 11:46:34;;;;;;;3.20;2.60;;;;;;;19.38;40.70;100483.89;130365;1267;108454;-76
2022/05/04 11:49:40;;;;;;;2.70;2.00;;;;;;;18.99;39.92;100486.45;130326;1268;108722;-76
2022/05/04 11:52:45;;;;;;;2.80;2.20;;;;;;;18.63;40.61;100487.23;130339;1266;108779;-76
2022/05/04 11:55:51;;;;;;;2.80;2.50;;;;;;;18.46;40.56;100486.02;130340;1268;108639;-76
2022/05/04 11:58:56;;;;;;;3.70;2.40;;;;;;;18.13;39.18;100482.02;130332;1267;108855;-76
2022/05/04 12:02:04;;;;;;;3.30;2.30;;;;;;;17.91;40.99;100481.44;130384;1268;109107;-76
2022/05/04 12:05:10;;;;;;;4.20;2.60;;;;;;;17.84;41.02;100479.35;130482;1267;108736;-76
2022/05/04 12:08:17;;;;;;;3.20;2.30;;;;;;;17.84;40.73;100480.42;130335;1267;108704;-77
2022/05/04 12:11:24;;;;;;;3.40;2.30;;;;;;;17.77;40.25;100471.38;130300;1267;108752;-76
2022/05/04 12:14:30;;;;;;;4.40;2.60;;;;;;;17.72;40.90;100476.20;130364;1267;108683;-75
2022/05/04 12:17:38;;;;;;;4.60;2.70;;;;;;;17.83;40.75;100474.23;130333;1267;108804;-76
2022/05/04 12:20:47;;;;;;;7.20;2.70;;;;;;;18.03;40.90;100474.40;130324;1267;108872;-76
2022/05/04 12:23:54;;;;;;;3.30;2.60;;;;;;;18.13;40.51;100473.59;130348;1267;108798;-76
2022/05/04 12:26:59;;;;;;;3.30;2.40;;;;;;;18.21;40.58;100470.56;130385;1266;108769;-76
2022/05/04 12:33:34;;;;;;;4.20;2.70;;;;;;;18.51;40.67;100465.05;130294;1267;108786;-76
2022/05/04 12:36:41;;;;;;;2.50;2.20;;;;;;;18.67;40.46;100464.05;130388;1267;107695;-76
2022/05/04 12:39:49;;;;;;;4.90;2.20;;;;;;;18.82;40.70;100463.66;130452;1266;108924;-76
2022/05/04 12:42:56;;;;;;;4.30;2.30;;;;;;;18.99;39.58;100460.24;130560;1268;108686;-77
2022/05/04 12:46:02;;;;;;;4.60;3.80;;;;;;;18.93;39.26;100457.81;130422;1267;108697;-76
2022/05/04 12:49:08;;;;;;;12.90;9.50;;;;;;;18.77;38.20;100453.83;130557;1267;108886;-77
2022/05/04 12:52:14;;;;;;;6.30;4.00;;;;;;;18.71;39.27;100453.05;130541;1266;108755;-76
2022/05/04 12:56:45;;;;;;;3.50;2.50;;;;;;;18.73;38.49;100454.26;130544;1267;108965;-77
2022/05/04 12:58:46;;;;;;;10.40;7.30;;;;;;;18.83;39.49;100447.53;130522;1267;108663;-77
2022/05/04 13:01:52;;;;;;;18.70;11.80;;;;;;;19.10;39.81;100443.91;130346;1267;109126;-76
2022/05/04 13:04:57;;;;;;;4.70;3.80;;;;;;;19.42;39.51;100442.02;130500;1267;108823;-77
2022/05/04 13:08:03;;;;;;;4.00;2.70;;;;;;;19.64;39.44;100434.74;130397;1267;108884;-77
2022/05/04 13:11:08;;;;;;;5.00;2.90;;;;;;;19.86;39.15;100434.18;130408;1266;108614;-77
2022/05/04 13:14:14;;;;;;;4.00;2.30;;;;;;;20.05;39.07;100437.33;130429;1267;108768;-77
2022/05/04 13:17:20;;;;;;;10.60;2.50;;;;;;;20.12;39.06;100435.60;130413;1267;108993;-77
2022/05/04 13:20:25;;;;;;;3.40;2.20;;;;;;;20.11;39.08;100429.98;130480;1267;108882;-78
2022/05/04 13:23:31;;;;;;;3.40;2.30;;;;;;;20.05;38.93;100431.36;130470;1267;108771;-78
2022/05/04 13:26:36;;;;;;;5.30;2.30;;;;;;;20.01;38.95;100432.09;130509;1267;108795;-78
2022/05/04 13:29:42;;;;;;;5.00;1.90;;;;;;;19.97;38.74;100428.63;130403;1266;108784;-77
2022/05/04 13:32:47;;;;;;;4.10;2.60;;;;;;;19.85;38.10;100428.89;130323;1267;108765;-78
2022/05/04 13:35:54;;;;;;;3.30;2.20;;;;;;;19.54;37.39;100428.32;130375;1267;108856;-77
2022/05/04 13:39:00;;;;;;;3.60;2.80;;;;;;;19.31;37.63;100427.60;130421;1267;107420;-77
2022/05/04 13:42:07;;;;;;;4.50;3.00;;;;;;;19.17;37.79;100427.54;130401;1266;108773;-77
2022/05/04 13:45:14;;;;;;;4.30;2.30;;;;;;;19.06;37.49;100426.10;130464;1267;108894;-78
2022/05/04 13:48:19;;;;;;;4.00;1.70;;;;;;;18.87;37.71;100426.30;130462;1266;108693;-78
2022/05/04 13:54:50;;;;;;;3.20;2.00;;;;;;;18.66;38.09;100427.61;130426;1267;108718;-77
2022/05/04 13:57:56;;;;;;;3.10;2.20;;;;;;;18.57;38.22;100426.17;130425;1266;108814;-77
2022/05/04 14:01:02;;;;;;;3.10;2.30;;;;;;;18.47;38.06;100423.38;130413;1267;106873;-77
2022/05/04 14:04:08;;;;;;;3.60;2.80;;;;;;;18.34;38.28;100421.24;130538;1266;108670;-77
2022/05/04 14:07:14;;;;;;;3.90;2.50;;;;;;;18.28;38.29;100422.86;130403;1267;108819;-77
2022/05/04 14:10:20;;;;;;;3.50;2.20;;;;;;;18.21;37.94;100422.11;130471;1267;108854;-77
2022/05/04 14:13:27;;;;;;;5.20;2.20;;;;;;;18.16;37.71;100418.19;130494;1267;109602;-77
2022/05/04 14:16:32;;;;;;;4.60;2.70;;;;;;;18.13;38.15;100415.63;130338;1267;108570;-77
2022/05/04 14:19:38;;;;;;;3.50;2.40;;;;;;;18.15;38.20;100414.05;130274;1267;108645;-77
2022/05/04 14:22:43;;;;;;;2.90;2.50;;;;;;;18.10;37.92;100410.97;130329;1267;108664;-77
2022/05/04 14:25:49;;;;;;;3.20;2.20;;;;;;;18.06;38.21;100411.23;130305;1267;108856;-77
2022/05/04 14:28:55;;;;;;;2.90;2.20;;;;;;;18.04;38.20;100408.23;130288;1267;109025;-76
2022/05/04 14:32:00;;;;;;;4.60;2.50;;;;;;;18.04;38.05;100406.90;130338;1267;109054;-77
2022/05/04 14:35:08;;;;;;;4.70;2.10;;;;;;;18.03;37.95;100409.26;130263;1267;108883;-77
2022/05/04 14:38:14;;;;;;;4.80;2.30;;;;;;;18.06;38.05;100405.29;130305;1267;108961;-78
2022/05/04 14:41:21;;;;;;;3.20;2.20;;;;;;;18.17;38.14;100402.23;130359;1267;108813;-77
2022/05/04 14:44:26;;;;;;;3.40;2.40;;;;;;;18.30;38.04;100402.96;130448;1266;108671;-78
2022/05/04 14:47:32;;;;;;;3.60;2.60;;;;;;;18.36;37.69;100400.30;130485;1267;108814;-77